createdAt,value
2023-02-27T00:03:18.029Z,14.40
2023-02-27T00:08:40.193Z,12.40
2023-02-27T00:14:02.093Z,11.40
2023-02-27T00:19:24.019Z,10.20
2023-02-27T00:24:45.846Z,14.20
2023-02-27T00:30:10.084Z,13.90
2023-02-27T00:35:31.914Z,14.90
2023-02-27T00:40:55.423Z,10.50
2023-02-27T00:46:17.535Z,22.40
2023-02-27T00:51:40.122Z,12.00
2023-02-27T00:57:01.936Z,18.90
2023-02-27T01:02:23.784Z,13.70
2023-02-27T01:07:45.799Z,14.60
2023-02-27T01:13:11.159Z,10.60
2023-02-27T01:18:33.191Z,33.50
2023-02-27T01:23:55.179Z,14.20
2023-02-27T01:29:17.030Z,13.60
2023-02-27T01:34:38.866Z,11.40
2023-02-27T01:40:00.862Z,10.00
2023-02-27T01:45:41.651Z,15.20
2023-02-27T01:51:14.221Z,12.10
2023-02-27T01:56:37.178Z,11.60
2023-02-27T02:01:59.360Z,11.80
2023-02-27T02:07:22.253Z,12.30
2023-02-27T02:12:45.256Z,9.50
2023-02-27T02:18:26.370Z,8.20
2023-02-27T02:23:54.621Z,6.80
2023-02-27T02:29:39.732Z,8.90
2023-02-27T02:35:26.871Z,10.10
2023-02-27T02:41:10.356Z,11.20
2023-02-27T02:46:57.180Z,9.70
2023-02-27T02:52:19.105Z,9.80
2023-02-27T02:57:46.328Z,6.60
2023-02-27T03:03:17.513Z,8.80
2023-02-27T03:08:48.801Z,9.80
2023-02-27T03:14:19.250Z,9.70
2023-02-27T03:19:55.187Z,13.20
2023-02-27T03:25:17.441Z,11.20
2023-02-27T03:31:10.009Z,8.50
2023-02-27T03:36:37.823Z,8.20
2023-02-27T03:42:12.581Z,9.90
2023-02-27T03:47:49.176Z,7.70
2023-02-27T03:53:26.159Z,11.70
2023-02-27T03:58:48.088Z,12.40
2023-02-27T04:04:14.036Z,11.40
2023-02-27T04:10:08.774Z,8.40
2023-02-27T04:16:02.181Z,6.90
2023-02-27T04:21:50.436Z,18.80
2023-02-27T04:27:50.401Z,14.80
2023-02-27T04:33:37.220Z,12.90
2023-02-27T04:39:05.200Z,12.50
2023-02-27T04:44:29.309Z,12.90
2023-02-27T04:50:02.214Z,12.40
2023-02-27T04:55:28.531Z,14.70
2023-02-27T05:00:57.377Z,13.40
2023-02-27T05:11:49.662Z,12.00
2023-02-27T05:17:11.598Z,16.70
2023-02-27T05:22:46.977Z,11.80
2023-02-27T05:28:35.201Z,14.30
2023-02-27T05:34:08.510Z,14.10
2023-02-27T05:39:32.606Z,16.80
2023-02-27T05:44:59.251Z,15.20
2023-02-27T05:50:25.472Z,11.30
2023-02-27T05:55:50.477Z,11.70
2023-02-27T06:01:12.936Z,12.10
2023-02-27T06:06:35.587Z,14.90
2023-02-27T06:11:58.128Z,11.50
2023-02-27T06:17:19.972Z,13.00
2023-02-27T06:22:42.182Z,13.00
2023-02-27T06:28:04.614Z,13.30
2023-02-27T06:33:26.739Z,14.10
2023-02-27T06:38:49.171Z,14.30
2023-02-27T06:44:10.995Z,11.20
2023-02-27T06:49:33.241Z,13.30
2023-02-27T06:54:54.982Z,13.00
2023-02-27T07:00:17.948Z,15.60
2023-02-27T07:05:42.027Z,15.50
2023-02-27T07:11:04.456Z,22.00
2023-02-27T07:16:26.683Z,18.00
2023-02-27T07:21:51.368Z,18.10
2023-02-27T07:27:13.464Z,17.70
2023-02-27T07:32:35.407Z,19.00
2023-02-27T07:37:57.450Z,19.60
2023-02-27T07:43:19.648Z,14.20
2023-02-27T07:48:41.506Z,16.20
2023-02-27T07:54:03.508Z,17.10
2023-02-27T07:59:25.240Z,19.00
2023-02-27T08:04:47.159Z,14.60
2023-02-27T08:10:09.706Z,12.00
2023-02-27T08:15:38.745Z,18.50
2023-02-27T08:21:00.677Z,16.90
2023-02-27T08:26:23.317Z,12.50
2023-02-27T08:31:47.041Z,17.60
2023-02-27T08:37:09.582Z,12.40
2023-02-27T08:42:34.618Z,11.80
2023-02-27T08:47:56.349Z,16.20
2023-02-27T08:53:18.532Z,18.20
2023-02-27T08:58:40.402Z,20.50
2023-02-27T09:04:08.685Z,19.20
2023-02-27T09:09:30.384Z,23.80
2023-02-27T09:14:52.213Z,14.40
2023-02-27T09:20:15.864Z,19.80
2023-02-27T09:25:37.781Z,22.40
2023-02-27T09:31:03.630Z,19.00
2023-02-27T09:36:26.117Z,28.80
2023-02-27T09:41:48.395Z,26.30
2023-02-27T09:47:28.681Z,22.70
2023-02-27T09:52:51.564Z,20.50
2023-02-27T09:58:41.035Z,17.50
2023-02-27T10:04:31.870Z,22.30
2023-02-27T10:10:05.438Z,11.10
2023-02-27T10:15:31.776Z,11.40
2023-02-27T10:21:00.590Z,12.30
2023-02-27T10:26:28.329Z,14.00
2023-02-27T10:31:55.601Z,24.80
2023-02-27T10:37:19.075Z,21.50
2023-02-27T10:42:41.790Z,16.30
2023-02-27T10:48:05.035Z,15.90
2023-02-27T10:53:28.180Z,13.10
2023-02-27T10:59:03.355Z,12.30
2023-02-27T11:04:40.517Z,15.00
2023-02-27T11:10:18.615Z,9.70
2023-02-27T11:15:40.655Z,9.30
2023-02-27T11:21:20.503Z,12.90
2023-02-27T11:26:59.322Z,7.20
2023-02-27T11:32:21.989Z,11.50
2023-02-27T11:37:50.012Z,21.50
2023-02-27T11:43:24.988Z,16.40
2023-02-27T11:48:49.124Z,22.20
2023-02-27T11:54:32.500Z,20.10
2023-02-27T12:00:06.745Z,15.60
2023-02-27T12:05:48.268Z,10.70
2023-02-27T12:11:28.543Z,12.80
2023-02-27T12:16:55.379Z,11.70
2023-02-27T12:22:25.394Z,24.30
2023-02-27T12:27:54.175Z,14.90
2023-02-27T12:38:48.638Z,20.70
2023-02-27T12:44:49.601Z,16.10
2023-02-27T12:50:19.850Z,16.80
2023-02-27T12:55:47.524Z,31.10
2023-02-27T13:01:29.785Z,23.70
2023-02-27T13:06:53.552Z,15.70
2023-02-27T13:12:43.989Z,9.80
2023-02-27T13:18:32.814Z,12.80
2023-02-27T13:24:06.533Z,11.50
2023-02-27T13:29:40.957Z,14.40
2023-02-27T13:35:17.442Z,27.40
2023-02-27T13:40:41.151Z,14.40
2023-02-27T13:46:13.449Z,17.00
2023-02-27T13:51:35.390Z,21.90
2023-02-27T13:56:57.789Z,19.20
2023-02-27T14:02:57.794Z,24.10
2023-02-27T14:08:28.715Z,31.10
2023-02-27T14:13:50.672Z,14.00
2023-02-27T14:19:15.300Z,36.10
2023-02-27T14:25:00.968Z,30.00
2023-02-27T14:30:29.550Z,13.20
2023-02-27T14:36:06.228Z,17.70
2023-02-27T14:42:10.239Z,12.80
2023-02-27T14:47:34.659Z,22.20
2023-02-27T14:52:56.709Z,15.20
2023-02-27T14:58:21.955Z,32.40
2023-02-27T15:03:50.458Z,18.70
2023-02-27T15:09:43.280Z,14.90
2023-02-27T15:15:10.098Z,11.40
2023-02-27T15:20:35.111Z,13.40
2023-02-27T15:25:58.941Z,19.90
2023-02-27T15:31:23.578Z,22.60
2023-02-27T15:36:54.810Z,23.10
2023-02-27T15:42:17.474Z,24.00
2023-02-27T15:47:40.957Z,18.40
2023-02-27T15:53:10.156Z,19.60
2023-02-27T15:58:39.616Z,21.90
2023-02-27T16:04:06.384Z,28.30
2023-02-27T16:09:36.102Z,83.80
2023-02-27T16:15:21.113Z,38.20
2023-02-27T16:20:45.189Z,24.40
2023-02-27T16:26:49.230Z,32.40
2023-02-27T16:32:27.017Z,21.90
2023-02-27T16:37:53.898Z,49.80
2023-02-27T16:43:16.317Z,21.40
2023-02-27T16:48:41.243Z,23.30
2023-02-27T16:54:04.079Z,17.90
2023-02-27T16:59:27.311Z,24.20
2023-02-27T17:04:50.226Z,25.80
2023-02-27T17:10:18.619Z,27.00
2023-02-27T17:15:41.820Z,31.40
2023-02-27T17:21:05.268Z,22.30
2023-02-27T17:26:29.420Z,18.30
2023-02-27T17:31:53.375Z,20.90
2023-02-27T17:37:15.963Z,18.00
2023-02-27T17:42:39.506Z,13.70
2023-02-27T17:48:01.528Z,15.90
2023-02-27T17:53:23.271Z,12.00
2023-02-27T17:58:45.711Z,18.90
2023-02-27T18:04:13.507Z,15.70
2023-02-27T18:09:38.280Z,10.10
2023-02-27T18:15:00.804Z,11.10
2023-02-27T18:20:22.731Z,15.30
2023-02-27T18:25:54.298Z,24.70
2023-02-27T18:31:24.570Z,21.00
2023-02-27T18:36:46.686Z,17.10
2023-02-27T18:42:08.321Z,16.70
2023-02-27T18:47:30.481Z,18.80
2023-02-27T18:52:54.376Z,18.50
2023-02-27T18:58:16.493Z,21.50
2023-02-27T19:03:38.748Z,26.70
2023-02-27T19:09:01.576Z,152.70
2023-02-27T19:14:23.743Z,105.10
2023-02-27T19:19:48.547Z,44.80
2023-02-27T19:25:15.998Z,33.20
2023-02-27T19:30:40.189Z,27.00
2023-02-27T19:36:07.898Z,22.80
2023-02-27T19:41:31.334Z,34.50
2023-02-27T19:46:58.093Z,44.10
2023-02-27T19:52:22.696Z,67.30
2023-02-27T19:57:48.298Z,71.60
2023-02-27T20:03:13.868Z,85.70
2023-02-27T20:08:36.261Z,79.40
2023-02-27T20:13:58.457Z,170.70
2023-02-27T20:19:21.963Z,103.80
2023-02-27T20:24:45.005Z,96.60
2023-02-27T20:30:09.083Z,118.80
2023-02-27T20:35:30.926Z,80.20
2023-02-27T20:40:57.929Z,87.70
2023-02-27T20:46:22.531Z,86.30
2023-02-27T20:51:44.906Z,103.20
2023-02-27T20:57:06.854Z,78.50
2023-02-27T21:02:29.375Z,65.40
2023-02-27T21:07:51.886Z,60.60
2023-02-27T21:13:13.715Z,52.50
2023-02-27T21:18:36.780Z,51.50
2023-02-27T21:23:59.195Z,64.10
2023-02-27T21:29:21.611Z,50.80
2023-02-27T21:34:43.336Z,45.80
2023-02-27T21:40:08.789Z,45.40
2023-02-27T21:45:30.806Z,43.30
2023-02-27T21:51:00.370Z,39.40
2023-02-27T21:56:22.294Z,40.40
2023-02-27T22:01:47.591Z,40.50
2023-02-27T22:07:11.449Z,55.70
2023-02-27T22:12:34.499Z,58.80
2023-02-27T22:17:56.337Z,73.70
2023-02-27T22:23:18.362Z,62.60
2023-02-27T22:28:43.510Z,69.20
2023-02-27T22:34:12.397Z,79.60
2023-02-27T22:39:34.489Z,56.10
2023-02-27T22:44:58.126Z,45.00
2023-02-27T22:50:21.727Z,35.00
2023-02-27T22:55:52.920Z,32.30
2023-02-27T23:01:16.525Z,35.60
2023-02-27T23:06:40.083Z,40.80
2023-02-27T23:12:03.931Z,36.20
2023-02-27T23:17:25.423Z,33.60
2023-02-27T23:22:47.379Z,31.60
2023-02-27T23:28:09.207Z,33.40
2023-02-27T23:33:31.765Z,25.70
2023-02-27T23:38:53.568Z,24.20
2023-02-27T23:44:38.582Z,29.00
2023-02-27T23:50:00.220Z,27.40
2023-02-27T23:55:22.744Z,28.60
